Terminal Aerodrome Forecast
Issued by NWS

Current Version | Previous Version | Graphics & Text | Print | Product List | Glossary On
Versions: 1 2 3 4 5 6 7 8 9 10 11 12 13 14 15 16 17 18 19
498
FTUS41 KILN 231031 AAB
TAFLCK
TAF AMD
KLCK 231031Z 2311/2406 00000KT 3SM BR FEW009 BKN040
     FM231300 23005KT P6SM FEW050 SCT250
     FM240100 00000KT P6SM SCT250=

USA.gov is the U.S. government's official web portal to all federal, state and local government web resources and services.